createdAt,value
2019-03-31T00:00:02.663Z,8.30
2019-03-31T00:02:30.933Z,8.70
2019-03-31T00:04:59.180Z,7.93
2019-03-31T00:07:27.418Z,8.38
2019-03-31T00:09:55.634Z,9.20
2019-03-31T00:12:23.862Z,8.85
2019-03-31T00:14:52.038Z,8.93
2019-03-31T00:17:20.287Z,8.90
2019-03-31T00:19:48.509Z,8.95
2019-03-31T00:22:16.763Z,9.00
2019-03-31T00:24:44.992Z,8.10
2019-03-31T00:27:13.225Z,8.02
2019-03-31T00:29:41.461Z,7.47
2019-03-31T00:32:09.714Z,7.93
2019-03-31T00:34:38.001Z,8.85
2019-03-31T00:37:07.661Z,8.77
2019-03-31T00:39:34.444Z,8.35
2019-03-31T00:42:02.683Z,8.65
2019-03-31T00:44:30.890Z,9.70
2019-03-31T00:47:02.014Z,9.50
2019-03-31T00:49:27.314Z,9.35
2019-03-31T00:51:55.481Z,9.88
2019-03-31T00:54:23.718Z,9.07
2019-03-31T00:56:51.940Z,9.48
2019-03-31T00:59:20.176Z,8.40
2019-03-31T01:01:49.280Z,8.50
2019-03-31T01:04:17.504Z,10.38
2019-03-31T01:06:45.749Z,8.95
2019-03-31T01:09:20.412Z,9.93
2019-03-31T01:11:48.615Z,8.82
2019-03-31T01:14:16.840Z,8.80
2019-03-31T01:16:45.101Z,9.57
2019-03-31T01:19:13.335Z,8.70
2019-03-31T01:21:41.566Z,8.90
2019-03-31T01:24:09.808Z,10.02
2019-03-31T01:26:37.999Z,11.53
2019-03-31T01:29:06.277Z,12.60
2019-03-31T01:31:34.479Z,11.95
2019-03-31T01:34:02.697Z,10.88
2019-03-31T01:36:30.871Z,11.00
2019-03-31T01:38:59.201Z,11.32
2019-03-31T01:41:27.449Z,10.98
2019-03-31T01:43:55.653Z,12.07
2019-03-31T01:46:23.884Z,13.00
2019-03-31T01:48:52.057Z,13.65
2019-03-31T01:51:20.306Z,16.30
2019-03-31T01:53:48.569Z,12.98
2019-03-31T01:56:16.810Z,14.80
2019-03-31T01:58:45.064Z,13.43
2019-03-31T02:01:13.345Z,13.32
2019-03-31T02:03:41.566Z,13.82
2019-03-31T02:06:09.781Z,14.07
2019-03-31T02:08:38.065Z,14.30
2019-03-31T02:11:06.315Z,12.93
2019-03-31T02:13:34.525Z,11.88
2019-03-31T02:16:02.743Z,10.88
2019-03-31T02:18:30.952Z,9.80
2019-03-31T02:20:59.203Z,9.50
2019-03-31T02:23:27.454Z,9.52
2019-03-31T02:25:55.653Z,9.63
2019-03-31T02:28:23.899Z,10.65
2019-03-31T02:30:52.171Z,11.65
2019-03-31T02:33:20.372Z,11.55
2019-03-31T02:35:48.623Z,11.40
2019-03-31T02:38:16.880Z,11.90
2019-03-31T02:40:45.095Z,11.80
2019-03-31T02:43:13.292Z,13.00
2019-03-31T02:45:41.561Z,12.70
2019-03-31T02:48:09.765Z,11.15
2019-03-31T02:50:42.380Z,10.82
2019-03-31T02:53:10.613Z,11.40
2019-03-31T02:55:38.802Z,11.98
2019-03-31T02:58:07.025Z,11.15
2019-03-31T03:00:35.277Z,10.27
2019-03-31T03:03:03.487Z,11.30
2019-03-31T03:05:31.847Z,10.77
2019-03-31T03:07:59.988Z,10.52
2019-03-31T03:10:28.161Z,11.18
2019-03-31T03:12:56.419Z,12.63
2019-03-31T03:15:26.337Z,11.07
2019-03-31T03:17:54.605Z,12.25
2019-03-31T03:20:22.848Z,13.35
2019-03-31T03:22:51.092Z,12.23
2019-03-31T03:25:19.322Z,11.60
2019-03-31T03:27:48.340Z,12.43
2019-03-31T03:30:16.554Z,11.77
2019-03-31T03:33:12.341Z,11.25
2019-03-31T03:35:13.004Z,12.43
2019-03-31T03:37:41.231Z,13.83
2019-03-31T03:40:09.484Z,11.77
2019-03-31T03:42:37.687Z,11.98
2019-03-31T03:45:05.938Z,13.27
2019-03-31T03:47:34.182Z,13.50
2019-03-31T03:50:02.441Z,12.68
2019-03-31T03:52:30.629Z,12.45
2019-03-31T03:54:58.824Z,11.63
2019-03-31T03:57:27.041Z,13.07
2019-03-31T03:59:55.263Z,13.93
2019-03-31T04:02:23.505Z,12.18
2019-03-31T04:04:51.757Z,11.63
2019-03-31T04:07:19.988Z,11.77
2019-03-31T04:09:48.224Z,14.38
2019-03-31T04:12:16.496Z,14.48
2019-03-31T04:14:44.698Z,14.65
2019-03-31T04:17:12.909Z,13.87
2019-03-31T04:19:41.121Z,13.85
2019-03-31T04:22:09.339Z,14.25
2019-03-31T04:24:37.574Z,12.82
2019-03-31T04:27:05.859Z,11.35
2019-03-31T04:29:34.023Z,11.33
2019-03-31T04:32:02.275Z,12.20
2019-03-31T04:34:30.570Z,11.95
2019-03-31T04:36:58.784Z,11.80
2019-03-31T04:39:26.992Z,10.80
2019-03-31T04:41:55.205Z,13.65
2019-03-31T04:44:23.446Z,12.05
2019-03-31T04:46:51.662Z,12.07
2019-03-31T04:49:19.930Z,13.18
2019-03-31T04:51:48.102Z,13.27
2019-03-31T04:54:16.325Z,14.52
2019-03-31T04:56:44.578Z,16.00
2019-03-31T04:59:12.780Z,14.20
2019-03-31T05:01:40.999Z,14.80
2019-03-31T05:04:09.238Z,15.02
2019-03-31T05:06:37.476Z,13.40
2019-03-31T05:09:05.659Z,12.95
2019-03-31T05:11:33.895Z,12.20
2019-03-31T05:14:02.135Z,13.23
2019-03-31T05:16:30.368Z,13.82
2019-03-31T05:18:58.597Z,12.63
2019-03-31T05:21:26.777Z,12.32
2019-03-31T05:23:54.942Z,12.23
2019-03-31T05:26:23.207Z,12.32
2019-03-31T05:28:51.408Z,13.27
2019-03-31T05:31:19.620Z,13.70
2019-03-31T05:33:47.875Z,14.25
2019-03-31T05:36:16.109Z,15.30
2019-03-31T05:38:44.305Z,15.30
2019-03-31T05:41:12.561Z,14.93
2019-03-31T05:43:40.786Z,15.00
2019-03-31T05:46:09.008Z,14.75
2019-03-31T05:48:37.273Z,14.50
2019-03-31T05:51:05.468Z,15.50
2019-03-31T05:53:33.706Z,15.63
2019-03-31T05:56:01.959Z,17.10
2019-03-31T05:58:30.220Z,17.15
2019-03-31T06:00:58.419Z,14.57
2019-03-31T06:03:26.631Z,15.97
2019-03-31T06:05:54.851Z,14.85
2019-03-31T06:08:23.041Z,16.25
2019-03-31T06:10:51.380Z,16.90
2019-03-31T08:37:41.719Z,11.43
2019-03-31T08:40:09.964Z,11.55
2019-03-31T08:42:38.165Z,11.07
2019-03-31T08:45:06.469Z,11.55
2019-03-31T08:47:34.672Z,11.20
2019-03-31T08:50:02.923Z,11.45
2019-03-31T08:52:31.148Z,12.10
2019-03-31T08:54:59.391Z,11.37
2019-03-31T08:57:27.619Z,10.88
2019-03-31T08:59:55.867Z,11.35
2019-03-31T09:02:24.080Z,11.63
2019-03-31T09:04:52.326Z,12.13
2019-03-31T09:07:20.561Z,11.43
2019-03-31T09:09:48.816Z,11.60
2019-03-31T09:12:19.026Z,10.50
2019-03-31T09:14:47.275Z,11.23
2019-03-31T09:17:15.533Z,10.85
2019-03-31T09:19:43.787Z,10.18
2019-03-31T09:22:12.042Z,9.73
2019-03-31T09:24:40.251Z,10.13
2019-03-31T09:27:08.497Z,10.05
2019-03-31T09:29:36.770Z,10.30
2019-03-31T09:32:04.962Z,10.30
2019-03-31T09:34:33.166Z,10.20
2019-03-31T09:37:01.424Z,9.40
2019-03-31T09:39:29.673Z,9.68
2019-03-31T09:41:57.928Z,9.07
2019-03-31T09:44:26.165Z,8.73
2019-03-31T09:46:54.404Z,8.02
2019-03-31T09:49:22.615Z,8.55
2019-03-31T09:51:50.859Z,7.83
2019-03-31T09:54:19.092Z,5.97
2019-03-31T09:56:47.337Z,5.78
2019-03-31T09:59:15.580Z,5.12
2019-03-31T10:01:43.809Z,6.10
2019-03-31T10:04:12.048Z,6.87
2019-03-31T10:06:40.263Z,7.55
2019-03-31T10:09:08.467Z,7.68
2019-03-31T10:11:36.658Z,8.40
2019-03-31T10:14:04.886Z,7.72
2019-03-31T10:16:33.094Z,7.50
2019-03-31T10:19:01.308Z,6.25
2019-03-31T10:21:29.535Z,6.70
2019-03-31T10:23:57.716Z,6.97
2019-03-31T10:26:31.901Z,5.72
2019-03-31T10:28:54.233Z,6.75
2019-03-31T10:31:22.423Z,5.40
2019-03-31T10:33:50.656Z,3.20
2019-03-31T10:36:18.895Z,3.20
2019-03-31T10:38:47.073Z,2.80
2019-03-31T10:41:15.304Z,2.53
2019-03-31T10:43:43.572Z,4.40
2019-03-31T10:46:11.773Z,5.28
2019-03-31T10:48:39.996Z,4.87
2019-03-31T10:51:08.212Z,4.05
2019-03-31T10:53:36.429Z,3.45
2019-03-31T10:56:04.644Z,2.92
2019-03-31T10:58:32.894Z,3.62
2019-03-31T11:01:01.093Z,2.85
2019-03-31T11:03:32.865Z,2.58
2019-03-31T11:05:57.574Z,2.77
2019-03-31T11:08:25.823Z,2.95
2019-03-31T11:10:54.010Z,3.00
2019-03-31T11:13:22.293Z,4.40
2019-03-31T11:15:50.486Z,5.00
2019-03-31T11:18:18.658Z,3.80
2019-03-31T11:20:46.915Z,4.30
2019-03-31T11:23:19.034Z,4.85
2019-03-31T11:25:47.226Z,5.00
2019-03-31T11:28:15.443Z,4.57
2019-03-31T11:30:43.650Z,3.50
2019-03-31T11:33:11.866Z,4.15
2019-03-31T11:35:40.099Z,4.05
2019-03-31T11:38:08.320Z,4.60
2019-03-31T11:40:36.610Z,4.25
2019-03-31T11:43:04.846Z,4.55
2019-03-31T11:45:33.051Z,3.90
2019-03-31T11:48:01.263Z,4.00
2019-03-31T11:50:29.515Z,4.37
2019-03-31T11:52:57.719Z,4.68
2019-03-31T11:55:25.967Z,5.68
2019-03-31T11:57:54.152Z,5.57
2019-03-31T12:00:22.363Z,4.82
2019-03-31T12:02:50.575Z,4.70
2019-03-31T12:05:18.782Z,5.10
2019-03-31T12:07:48.363Z,5.70
2019-03-31T12:10:19.636Z,4.53
2019-03-31T12:12:44.854Z,5.10
2019-03-31T12:15:13.075Z,5.20
2019-03-31T12:17:41.317Z,4.93
2019-03-31T12:20:09.499Z,4.68
2019-03-31T12:22:37.715Z,4.80
2019-03-31T12:25:05.981Z,5.20
2019-03-31T12:27:34.152Z,5.30
2019-03-31T12:30:02.343Z,5.28
2019-03-31T12:32:30.567Z,6.15
2019-03-31T12:34:58.815Z,5.63
2019-03-31T12:37:41.247Z,5.07
2019-03-31T12:39:55.266Z,5.20
2019-03-31T12:42:23.483Z,5.85
2019-03-31T12:44:51.665Z,6.20
2019-03-31T12:47:19.943Z,5.70
2019-03-31T12:49:48.192Z,6.15
2019-03-31T12:52:16.399Z,6.30
2019-03-31T12:54:44.641Z,6.15
2019-03-31T12:57:12.852Z,5.65
2019-03-31T12:59:41.056Z,5.55
2019-03-31T13:02:09.285Z,4.80
2019-03-31T13:04:37.492Z,4.75
2019-03-31T13:07:05.668Z,4.60
2019-03-31T13:09:33.904Z,4.62
2019-03-31T13:12:02.135Z,4.57
2019-03-31T13:14:30.349Z,4.65
2019-03-31T13:17:01.436Z,5.12
2019-03-31T13:19:26.814Z,4.37
2019-03-31T13:21:55.056Z,5.50
2019-03-31T13:24:23.332Z,5.45
2019-03-31T13:26:51.551Z,4.72
2019-03-31T13:29:19.773Z,5.05
2019-03-31T13:31:48.020Z,5.15
2019-03-31T13:34:16.264Z,4.95
2019-03-31T13:36:44.470Z,5.65
2019-03-31T13:39:12.768Z,6.82
2019-03-31T13:41:40.892Z,5.50
2019-03-31T13:44:09.149Z,5.68
2019-03-31T13:46:37.432Z,5.40
2019-03-31T13:49:05.636Z,5.90
2019-03-31T13:51:33.869Z,5.00
2019-03-31T13:54:02.216Z,4.90
2019-03-31T13:56:31.069Z,5.20
2019-03-31T13:58:58.583Z,5.13
2019-03-31T14:01:26.860Z,5.40
2019-03-31T14:03:55.076Z,5.40
2019-03-31T14:06:23.342Z,5.12
2019-03-31T14:08:51.523Z,4.73
2019-03-31T14:11:21.665Z,5.18
2019-03-31T14:13:47.973Z,4.90
2019-03-31T14:16:16.188Z,4.83
2019-03-31T14:18:44.398Z,4.57
2019-03-31T14:21:12.605Z,4.60
2019-03-31T14:23:43.751Z,6.18
2019-03-31T14:26:09.115Z,4.90
2019-03-31T14:28:37.330Z,5.22
2019-03-31T14:31:05.663Z,4.70
2019-03-31T14:33:33.901Z,5.00
2019-03-31T14:36:02.075Z,4.97
2019-03-31T14:38:39.902Z,5.03
2019-03-31T14:40:58.506Z,4.15
2019-03-31T14:43:28.178Z,4.95
2019-03-31T14:45:55.005Z,5.20
2019-03-31T14:48:23.226Z,5.30
2019-03-31T14:50:51.414Z,4.57
2019-03-31T14:53:19.647Z,4.53
2019-03-31T14:55:47.870Z,5.40
2019-03-31T14:58:16.132Z,5.37
2019-03-31T15:00:44.398Z,4.60
2019-03-31T15:03:12.585Z,4.70
2019-03-31T15:05:40.802Z,4.47
2019-03-31T15:08:09.114Z,5.05
2019-03-31T15:10:37.317Z,5.93
2019-03-31T15:13:05.556Z,6.12
2019-03-31T15:15:33.789Z,5.97
2019-03-31T15:18:01.986Z,6.10
2019-03-31T15:20:30.177Z,6.00
2019-03-31T15:22:58.837Z,5.95
2019-03-31T15:25:27.072Z,5.10
2019-03-31T15:27:55.256Z,4.82
2019-03-31T15:30:23.522Z,4.28
2019-03-31T15:32:51.723Z,5.12
2019-03-31T15:35:19.949Z,4.80
2019-03-31T15:37:49.299Z,11.17
2019-03-31T15:40:17.584Z,5.25
2019-03-31T15:42:45.676Z,6.55
2019-03-31T15:45:13.957Z,8.07
2019-03-31T15:47:42.191Z,8.55
2019-03-31T15:50:10.412Z,8.80
2019-03-31T15:52:38.634Z,7.72
2019-03-31T15:55:06.815Z,8.70
2019-03-31T15:57:35.056Z,8.45
2019-03-31T16:00:03.276Z,9.43
2019-03-31T16:02:31.458Z,8.32
2019-03-31T16:04:59.707Z,8.20
2019-03-31T16:07:27.954Z,7.47
2019-03-31T16:09:56.136Z,7.80
2019-03-31T16:12:24.387Z,7.43
2019-03-31T16:14:52.611Z,7.43
2019-03-31T16:17:20.818Z,7.93
2019-03-31T16:19:49.053Z,7.78
2019-03-31T16:22:17.289Z,7.37
2019-03-31T16:24:45.520Z,8.27
2019-03-31T16:27:13.737Z,8.40
2019-03-31T16:29:41.980Z,8.35
2019-03-31T16:32:10.183Z,8.43
2019-03-31T16:34:38.356Z,8.50
2019-03-31T16:37:06.584Z,7.37
2019-03-31T16:39:37.943Z,7.87
2019-03-31T16:42:02.983Z,7.90
2019-03-31T16:44:31.251Z,7.47
2019-03-31T16:46:59.472Z,8.48
2019-03-31T16:49:27.697Z,7.95
2019-03-31T16:51:55.951Z,8.15
2019-03-31T16:54:24.149Z,8.05
2019-03-31T16:56:52.387Z,8.10
2019-03-31T16:59:20.661Z,8.10
2019-03-31T17:01:48.849Z,7.80
2019-03-31T17:04:17.082Z,9.70
2019-03-31T17:06:45.339Z,9.90
2019-03-31T17:09:13.591Z,10.55
2019-03-31T17:11:41.811Z,13.52
2019-03-31T17:14:10.083Z,21.60
2019-03-31T17:16:38.313Z,26.05
2019-03-31T17:19:06.539Z,30.20
2019-03-31T17:21:34.781Z,29.20
2019-03-31T17:24:03.065Z,36.35
2019-03-31T17:26:31.252Z,37.58
2019-03-31T17:28:59.484Z,36.93
2019-03-31T17:31:27.676Z,37.05
2019-03-31T17:33:55.856Z,39.38
2019-03-31T17:36:24.128Z,36.60
2019-03-31T17:38:52.331Z,35.28
2019-03-31T17:41:20.519Z,39.47
2019-03-31T17:43:48.737Z,38.40
2019-03-31T17:46:16.946Z,39.88
2019-03-31T17:48:45.139Z,39.35
2019-03-31T17:51:13.386Z,40.58
2019-03-31T17:53:41.640Z,38.08
2019-03-31T17:56:09.792Z,39.80
2019-03-31T17:58:38.069Z,38.17
2019-03-31T18:01:06.265Z,37.70
2019-03-31T18:03:34.445Z,39.00
2019-03-31T18:06:02.705Z,35.13
2019-03-31T18:08:30.944Z,38.97
2019-03-31T18:10:59.160Z,35.58
2019-03-31T18:13:27.390Z,37.50
2019-03-31T18:15:55.611Z,37.65
2019-03-31T18:18:23.853Z,38.00
2019-03-31T18:20:52.098Z,37.70
2019-03-31T18:23:20.282Z,36.78
2019-03-31T18:25:48.478Z,36.15
2019-03-31T18:28:16.699Z,39.00
2019-03-31T18:30:44.958Z,37.20
2019-03-31T18:33:13.152Z,35.67
2019-03-31T18:35:41.427Z,38.97
2019-03-31T18:38:09.646Z,38.50
2019-03-31T18:40:37.912Z,39.17
2019-03-31T18:43:06.965Z,38.13
2019-03-31T18:45:35.140Z,38.10
2019-03-31T18:48:03.335Z,37.08
2019-03-31T18:50:31.600Z,38.25
2019-03-31T18:52:59.843Z,39.28
2019-03-31T18:55:30.951Z,38.25
2019-03-31T18:58:01.960Z,37.90
2019-03-31T19:00:30.136Z,37.47
2019-03-31T19:02:58.381Z,37.67
2019-03-31T19:05:26.617Z,38.07
2019-03-31T19:08:00.225Z,38.47
2019-03-31T19:10:38.569Z,38.00
2019-03-31T19:13:07.683Z,39.72
2019-03-31T19:15:41.732Z,39.83
2019-03-31T19:18:09.992Z,38.92
2019-03-31T19:20:43.751Z,38.35
2019-03-31T19:23:17.496Z,37.60
2019-03-31T19:25:46.604Z,38.07
2019-03-31T19:28:20.382Z,38.30
2019-03-31T19:30:48.589Z,38.27
2019-03-31T19:33:22.267Z,38.35
2019-03-31T19:35:50.502Z,38.00
2019-03-31T19:38:21.694Z,38.83
2019-03-31T19:41:04.127Z,38.60
2019-03-31T19:43:23.758Z,37.17
2019-03-31T19:45:51.987Z,37.30
2019-03-31T19:48:25.815Z,37.45
2019-03-31T19:50:54.002Z,37.00
2019-03-31T19:53:28.129Z,36.17
2019-03-31T19:56:06.950Z,36.50
2019-03-31T19:58:26.299Z,35.50
2019-03-31T20:00:59.327Z,34.70
2019-03-31T20:03:28.301Z,35.93
2019-03-31T20:06:00.297Z,36.15
2019-03-31T20:08:28.481Z,36.35
2019-03-31T20:10:56.670Z,35.57
2019-03-31T20:13:30.875Z,35.85
2019-03-31T20:16:04.673Z,35.28
2019-03-31T20:18:36.690Z,36.15
2019-03-31T20:21:08.746Z,34.88
2019-03-31T20:23:38.768Z,34.78
2019-03-31T20:26:07.720Z,34.17
2019-03-31T20:28:38.890Z,33.33
2019-03-31T20:31:07.116Z,34.00
2019-03-31T20:33:40.951Z,33.67
2019-03-31T20:36:12.927Z,33.13
2019-03-31T20:38:41.152Z,32.88
2019-03-31T20:41:14.907Z,33.10
2019-03-31T20:43:43.155Z,32.08
2019-03-31T20:46:11.377Z,33.75
2019-03-31T20:48:39.564Z,33.58
2019-03-31T20:51:07.799Z,32.58
2019-03-31T20:53:35.984Z,31.45
2019-03-31T20:56:04.198Z,32.88
2019-03-31T20:58:32.438Z,31.90
2019-03-31T21:01:00.630Z,33.83
2019-03-31T21:03:28.815Z,33.13
2019-03-31T21:05:57.077Z,33.05
2019-03-31T21:08:25.266Z,32.75
2019-03-31T21:10:53.453Z,33.47
2019-03-31T21:13:21.695Z,32.95
2019-03-31T21:15:49.891Z,34.22
2019-03-31T21:18:18.112Z,34.35
2019-03-31T21:20:46.354Z,34.53
2019-03-31T21:23:14.585Z,35.58
2019-03-31T21:25:42.813Z,35.33
2019-03-31T21:28:11.049Z,35.67
2019-03-31T21:30:39.281Z,35.13
2019-03-31T21:33:07.466Z,36.97
2019-03-31T21:35:35.739Z,36.65
2019-03-31T21:38:05.162Z,36.10
2019-03-31T21:40:32.205Z,36.17
2019-03-31T21:43:00.443Z,37.47
2019-03-31T21:45:28.642Z,35.92
2019-03-31T21:47:56.837Z,37.10
2019-03-31T21:50:25.100Z,37.10
2019-03-31T21:52:53.311Z,36.00
2019-03-31T21:55:21.573Z,36.78
2019-03-31T21:57:50.021Z,36.03
2019-03-31T22:00:18.258Z,35.90
2019-03-31T22:02:46.469Z,35.60
2019-03-31T22:05:14.701Z,36.17
2019-03-31T22:07:42.938Z,34.97
2019-03-31T22:10:11.156Z,35.78
2019-03-31T22:12:39.412Z,35.22
2019-03-31T22:15:08.204Z,34.17
2019-03-31T22:17:46.094Z,34.30
2019-03-31T22:20:14.238Z,32.67
2019-03-31T22:22:42.415Z,33.70
2019-03-31T22:25:10.655Z,33.83
2019-03-31T22:27:38.838Z,33.20
2019-03-31T22:30:07.105Z,32.88
2019-03-31T22:32:35.324Z,31.85
2019-03-31T22:35:03.576Z,31.23
2019-03-31T22:37:31.764Z,32.70
2019-03-31T22:40:00.053Z,32.55
2019-03-31T22:42:28.273Z,32.35
2019-03-31T22:44:56.487Z,33.33
2019-03-31T22:47:24.783Z,32.65
2019-03-31T22:49:52.958Z,32.60
2019-03-31T22:52:21.164Z,32.80
2019-03-31T22:54:49.406Z,32.67
2019-03-31T22:57:17.634Z,34.25
2019-03-31T22:59:45.864Z,34.10
2019-03-31T23:02:15.104Z,34.28
2019-03-31T23:04:43.359Z,34.53
2019-03-31T23:07:11.580Z,34.63
2019-03-31T23:09:39.848Z,33.80
2019-03-31T23:12:08.047Z,34.55
2019-03-31T23:14:36.226Z,35.67
2019-03-31T23:17:04.475Z,35.10
2019-03-31T23:19:32.695Z,35.45
2019-03-31T23:22:00.929Z,34.95
2019-03-31T23:24:29.190Z,36.13
2019-03-31T23:26:57.384Z,37.10
2019-03-31T23:29:25.590Z,36.63
2019-03-31T23:31:53.835Z,37.75
2019-03-31T23:34:22.028Z,36.35
2019-03-31T23:36:50.249Z,38.00
2019-03-31T23:39:18.488Z,37.30
2019-03-31T23:41:46.734Z,36.90
2019-03-31T23:44:14.961Z,36.88
2019-03-31T23:46:43.206Z,37.10
2019-03-31T23:49:11.407Z,35.58
2019-03-31T23:51:39.615Z,37.85
2019-03-31T23:54:07.858Z,36.88
2019-03-31T23:56:36.060Z,35.38
2019-03-31T23:59:04.274Z,36.67
